Yakima, Washington
Current Conditions -  °F | °C
As of 10:20 AM on Sunday 25 Jan 2015 (Local Time) from KYKM Reporting Station
Moderate Fog Moderate Fog  
Wind Chill: 37°   Ceiling: 100
Heat Index: 37°   Visibility: 0.25mi
Dew Point: 35°   Wind: 0mph
Humidity: 93%   Direction: NA
Pressure: 30.26"   Gusts: NA
Location:  46.6°N, 120.5°W
Report Text: KYKM 251820Z 00000KT 1/4SM R27/1600V4500FT FG OVC001 03/02 A3026 RMK AO2 SFC VIS 1/2 T00280017
Loading
Personal Weather Stations






























Interactive Weather Map New forecast layout! Learn more

10-Day Weather Forecast

Advertisements
Track Severe Weather on mobile